sensor_id;sensor_type;location;lat;lon;timestamp;P1;durP1;ratioP1;P2;durP2;ratioP2
74612;SDS011;63119;51.788;8.824;2022-11-15T00:01:29;8.97;;;5.17;;
74612;SDS011;63119;51.788;8.824;2022-11-15T00:03:54;9.40;;;5.13;;
74612;SDS011;63119;51.788;8.824;2022-11-15T00:06:19;10.97;;;5.93;;
74612;SDS011;63119;51.788;8.824;2022-11-15T00:08:44;9.27;;;6.00;;
74612;SDS011;63119;51.788;8.824;2022-11-15T00:11:10;10.13;;;5.43;;
74612;SDS011;63119;51.788;8.824;2022-11-15T00:13:37;8.90;;;5.30;;
74612;SDS011;63119;51.788;8.824;2022-11-15T00:16:02;8.43;;;4.90;;
74612;SDS011;63119;51.788;8.824;2022-11-15T00:18:29;7.78;;;5.18;;
74612;SDS011;63119;51.788;8.824;2022-11-15T00:20:55;8.93;;;4.75;;
74612;SDS011;63119;51.788;8.824;2022-11-15T00:23:21;8.48;;;5.47;;
74612;SDS011;63119;51.788;8.824;2022-11-15T00:25:46;11.93;;;5.30;;
74612;SDS011;63119;51.788;8.824;2022-11-15T00:28:12;11.17;;;6.03;;
74612;SDS011;63119;51.788;8.824;2022-11-15T00:30:37;10.48;;;5.47;;
74612;SDS011;63119;51.788;8.824;2022-11-15T00:33:06;9.37;;;5.40;;
74612;SDS011;63119;51.788;8.824;2022-11-15T00:35:32;9.13;;;5.32;;
74612;SDS011;63119;51.788;8.824;2022-11-15T00:37:58;10.20;;;5.72;;
74612;SDS011;63119;51.788;8.824;2022-11-15T00:40:24;11.88;;;6.55;;
74612;SDS011;63119;51.788;8.824;2022-11-15T00:42:49;10.77;;;6.47;;
74612;SDS011;63119;51.788;8.824;2022-11-15T00:45:15;13.60;;;6.37;;
74612;SDS011;63119;51.788;8.824;2022-11-15T00:47:40;11.50;;;6.50;;
74612;SDS011;63119;51.788;8.824;2022-11-15T00:50:05;9.37;;;5.73;;
74612;SDS011;63119;51.788;8.824;2022-11-15T00:52:31;11.18;;;5.65;;
74612;SDS011;63119;51.788;8.824;2022-11-15T00:54:56;10.03;;;6.30;;
74612;SDS011;63119;51.788;8.824;2022-11-15T00:57:21;11.70;;;6.03;;
74612;SDS011;63119;51.788;8.824;2022-11-15T00:59:46;14.80;;;6.43;;
74612;SDS011;63119;51.788;8.824;2022-11-15T01:02:12;13.60;;;6.10;;
74612;SDS011;63119;51.788;8.824;2022-11-15T01:04:37;13.23;;;6.67;;
74612;SDS011;63119;51.788;8.824;2022-11-15T01:07:02;12.90;;;6.67;;
74612;SDS011;63119;51.788;8.824;2022-11-15T01:09:28;10.97;;;6.10;;
74612;SDS011;63119;51.788;8.824;2022-11-15T01:11:53;10.95;;;6.15;;
74612;SDS011;63119;51.788;8.824;2022-11-15T01:14:18;11.85;;;6.90;;
74612;SDS011;63119;51.788;8.824;2022-11-15T01:16:44;13.30;;;6.88;;
74612;SDS011;63119;51.788;8.824;2022-11-15T01:19:09;11.63;;;6.70;;
74612;SDS011;63119;51.788;8.824;2022-11-15T01:21:34;10.43;;;6.87;;
74612;SDS011;63119;51.788;8.824;2022-11-15T01:24:00;11.10;;;6.80;;
74612;SDS011;63119;51.788;8.824;2022-11-15T01:26:25;16.63;;;6.88;;
74612;SDS011;63119;51.788;8.824;2022-11-15T01:28:51;15.75;;;7.13;;
74612;SDS011;63119;51.788;8.824;2022-11-15T01:31:17;16.83;;;7.93;;
74612;SDS011;63119;51.788;8.824;2022-11-15T01:36:11;14.20;;;7.40;;
74612;SDS011;63119;51.788;8.824;2022-11-15T01:38:46;16.58;;;7.70;;
74612;SDS011;63119;51.788;8.824;2022-11-15T01:41:14;12.23;;;7.27;;
74612;SDS011;63119;51.788;8.824;2022-11-15T01:43:41;11.77;;;6.55;;
74612;SDS011;63119;51.788;8.824;2022-11-15T01:46:14;13.10;;;7.87;;
74612;SDS011;63119;51.788;8.824;2022-11-15T01:48:50;14.40;;;8.30;;
74612;SDS011;63119;51.788;8.824;2022-11-15T01:51:17;17.38;;;8.52;;
74612;SDS011;63119;51.788;8.824;2022-11-15T01:53:45;14.05;;;8.68;;
74612;SDS011;63119;51.788;8.824;2022-11-15T01:56:16;16.20;;;8.75;;
74612;SDS011;63119;51.788;8.824;2022-11-15T01:58:45;16.13;;;9.23;;
74612;SDS011;63119;51.788;8.824;2022-11-15T02:01:11;15.48;;;9.10;;
74612;SDS011;63119;51.788;8.824;2022-11-15T02:03:42;19.60;;;10.13;;
74612;SDS011;63119;51.788;8.824;2022-11-15T02:06:14;17.52;;;9.40;;
74612;SDS011;63119;51.788;8.824;2022-11-15T02:08:39;15.07;;;8.98;;
74612;SDS011;63119;51.788;8.824;2022-11-15T02:11:08;20.90;;;10.05;;
74612;SDS011;63119;51.788;8.824;2022-11-15T02:13:34;19.85;;;9.63;;
74612;SDS011;63119;51.788;8.824;2022-11-15T02:18:32;17.50;;;9.63;;
74612;SDS011;63119;51.788;8.824;2022-11-15T02:21:17;17.13;;;9.95;;
74612;SDS011;63119;51.788;8.824;2022-11-15T02:26:29;14.27;;;8.40;;
74612;SDS011;63119;51.788;8.824;2022-11-15T02:29:20;17.35;;;9.05;;
74612;SDS011;63119;51.788;8.824;2022-11-15T02:32:18;16.85;;;10.40;;
74612;SDS011;63119;51.788;8.824;2022-11-15T02:43:24;24.88;;;11.27;;
74612;SDS011;63119;51.788;8.824;2022-11-15T02:46:14;20.15;;;10.40;;
74612;SDS011;63119;51.788;8.824;2022-11-15T02:48:47;17.15;;;10.20;;
74612;SDS011;63119;51.788;8.824;2022-11-15T02:51:13;17.73;;;10.88;;
74612;SDS011;63119;51.788;8.824;2022-11-15T02:53:39;19.35;;;9.80;;
74612;SDS011;63119;51.788;8.824;2022-11-15T02:56:04;16.13;;;9.53;;
74612;SDS011;63119;51.788;8.824;2022-11-15T02:58:35;19.10;;;10.45;;
74612;SDS011;63119;51.788;8.824;2022-11-15T03:03:55;17.42;;;9.13;;
74612;SDS011;63119;51.788;8.824;2022-11-15T03:06:52;17.13;;;10.07;;
74612;SDS011;63119;51.788;8.824;2022-11-15T03:09:35;18.85;;;10.05;;
74612;SDS011;63119;51.788;8.824;2022-11-15T03:12:40;16.00;;;8.85;;
74612;SDS011;63119;51.788;8.824;2022-11-15T03:15:09;19.67;;;10.10;;
74612;SDS011;63119;51.788;8.824;2022-11-15T03:20:44;17.13;;;10.02;;
74612;SDS011;63119;51.788;8.824;2022-11-15T03:23:10;16.30;;;9.38;;
74612;SDS011;63119;51.788;8.824;2022-11-15T03:25:40;17.65;;;9.77;;
74612;SDS011;63119;51.788;8.824;2022-11-15T03:28:08;18.85;;;8.88;;
74612;SDS011;63119;51.788;8.824;2022-11-15T03:30:37;16.60;;;9.00;;
74612;SDS011;63119;51.788;8.824;2022-11-15T03:33:04;15.25;;;8.80;;
74612;SDS011;63119;51.788;8.824;2022-11-15T03:35:33;16.63;;;8.75;;
74612;SDS011;63119;51.788;8.824;2022-11-15T03:38:06;20.30;;;9.32;;
74612;SDS011;63119;51.788;8.824;2022-11-15T03:40:40;15.88;;;8.65;;
74612;SDS011;63119;51.788;8.824;2022-11-15T03:46:07;16.35;;;8.13;;
74612;SDS011;63119;51.788;8.824;2022-11-15T03:48:40;14.07;;;7.25;;
74612;SDS011;63119;51.788;8.824;2022-11-15T03:51:11;14.88;;;8.43;;
74612;SDS011;63119;51.788;8.824;2022-11-15T03:53:37;13.85;;;7.22;;
74612;SDS011;63119;51.788;8.824;2022-11-15T03:56:03;11.80;;;7.18;;
74612;SDS011;63119;51.788;8.824;2022-11-15T03:58:28;14.60;;;7.28;;
74612;SDS011;63119;51.788;8.824;2022-11-15T04:00:53;15.50;;;7.20;;
74612;SDS011;63119;51.788;8.824;2022-11-15T04:03:19;13.60;;;8.47;;
74612;SDS011;63119;51.788;8.824;2022-11-15T04:05:44;13.63;;;7.97;;
74612;SDS011;63119;51.788;8.824;2022-11-15T04:08:09;12.23;;;6.77;;
74612;SDS011;63119;51.788;8.824;2022-11-15T04:10:34;12.33;;;6.50;;
74612;SDS011;63119;51.788;8.824;2022-11-15T04:13:01;12.93;;;7.07;;
74612;SDS011;63119;51.788;8.824;2022-11-15T04:15:27;11.52;;;6.90;;
74612;SDS011;63119;51.788;8.824;2022-11-15T04:17:54;12.98;;;7.45;;
74612;SDS011;63119;51.788;8.824;2022-11-15T04:20:25;12.73;;;7.38;;
74612;SDS011;63119;51.788;8.824;2022-11-15T04:23:12;12.65;;;6.68;;
74612;SDS011;63119;51.788;8.824;2022-11-15T04:25:56;14.60;;;7.90;;
74612;SDS011;63119;51.788;8.824;2022-11-15T04:28:24;12.10;;;7.25;;
74612;SDS011;63119;51.788;8.824;2022-11-15T04:30:49;12.40;;;7.13;;
74612;SDS011;63119;51.788;8.824;2022-11-15T04:33:14;11.30;;;6.73;;
74612;SDS011;63119;51.788;8.824;2022-11-15T04:35:40;14.60;;;7.65;;
74612;SDS011;63119;51.788;8.824;2022-11-15T04:38:07;12.52;;;7.50;;
74612;SDS011;63119;51.788;8.824;2022-11-15T04:40:34;12.60;;;7.07;;
74612;SDS011;63119;51.788;8.824;2022-11-15T04:43:00;11.38;;;6.53;;
74612;SDS011;63119;51.788;8.824;2022-11-15T04:45:25;9.50;;;6.57;;
74612;SDS011;63119;51.788;8.824;2022-11-15T04:47:51;18.23;;;8.10;;
74612;SDS011;63119;51.788;8.824;2022-11-15T04:50:16;12.27;;;7.40;;
74612;SDS011;63119;51.788;8.824;2022-11-15T04:52:42;13.57;;;8.30;;
74612;SDS011;63119;51.788;8.824;2022-11-15T04:55:14;14.60;;;8.00;;
74612;SDS011;63119;51.788;8.824;2022-11-15T04:57:40;13.45;;;7.80;;
74612;SDS011;63119;51.788;8.824;2022-11-15T05:00:06;13.75;;;7.03;;
74612;SDS011;63119;51.788;8.824;2022-11-15T05:02:35;12.65;;;7.10;;
74612;SDS011;63119;51.788;8.824;2022-11-15T05:05:18;14.52;;;7.18;;
74612;SDS011;63119;51.788;8.824;2022-11-15T05:07:44;13.70;;;7.13;;
74612;SDS011;63119;51.788;8.824;2022-11-15T05:10:09;11.37;;;6.83;;
74612;SDS011;63119;51.788;8.824;2022-11-15T05:12:35;12.00;;;7.10;;
74612;SDS011;63119;51.788;8.824;2022-11-15T05:15:00;14.82;;;8.30;;
74612;SDS011;63119;51.788;8.824;2022-11-15T05:17:26;11.82;;;6.80;;
74612;SDS011;63119;51.788;8.824;2022-11-15T05:19:51;12.30;;;7.17;;
74612;SDS011;63119;51.788;8.824;2022-11-15T05:22:17;11.93;;;6.95;;
74612;SDS011;63119;51.788;8.824;2022-11-15T05:24:42;15.15;;;7.20;;
74612;SDS011;63119;51.788;8.824;2022-11-15T05:27:08;15.13;;;7.50;;
74612;SDS011;63119;51.788;8.824;2022-11-15T05:29:33;11.37;;;5.67;;
74612;SDS011;63119;51.788;8.824;2022-11-15T05:31:58;12.00;;;6.67;;
74612;SDS011;63119;51.788;8.824;2022-11-15T05:34:24;10.40;;;5.47;;
74612;SDS011;63119;51.788;8.824;2022-11-15T05:36:50;10.52;;;5.85;;
74612;SDS011;63119;51.788;8.824;2022-11-15T05:39:15;8.73;;;5.43;;
74612;SDS011;63119;51.788;8.824;2022-11-15T05:44:15;11.35;;;6.90;;
74612;SDS011;63119;51.788;8.824;2022-11-15T05:46:44;14.13;;;7.43;;
74612;SDS011;63119;51.788;8.824;2022-11-15T05:49:10;15.55;;;7.97;;
74612;SDS011;63119;51.788;8.824;2022-11-15T05:51:39;12.25;;;7.53;;
74612;SDS011;63119;51.788;8.824;2022-11-15T05:54:06;11.43;;;7.25;;
74612;SDS011;63119;51.788;8.824;2022-11-15T05:56:32;12.48;;;6.65;;
74612;SDS011;63119;51.788;8.824;2022-11-15T05:58:58;9.37;;;5.90;;
74612;SDS011;63119;51.788;8.824;2022-11-15T06:01:24;12.45;;;6.53;;
74612;SDS011;63119;51.788;8.824;2022-11-15T06:03:50;11.63;;;6.45;;
74612;SDS011;63119;51.788;8.824;2022-11-15T06:06:16;11.20;;;5.97;;
74612;SDS011;63119;51.788;8.824;2022-11-15T06:08:41;9.90;;;5.40;;
74612;SDS011;63119;51.788;8.824;2022-11-15T06:11:06;10.27;;;5.90;;
74612;SDS011;63119;51.788;8.824;2022-11-15T06:13:32;10.77;;;6.38;;
74612;SDS011;63119;51.788;8.824;2022-11-15T06:15:59;9.80;;;5.90;;
74612;SDS011;63119;51.788;8.824;2022-11-15T06:18:24;11.77;;;5.82;;
74612;SDS011;63119;51.788;8.824;2022-11-15T06:20:50;9.68;;;5.05;;
74612;SDS011;63119;51.788;8.824;2022-11-15T06:23:15;8.75;;;5.57;;
74612;SDS011;63119;51.788;8.824;2022-11-15T06:25:41;7.80;;;4.93;;
74612;SDS011;63119;51.788;8.824;2022-11-15T06:28:06;9.17;;;5.63;;
74612;SDS011;63119;51.788;8.824;2022-11-15T06:30:31;8.77;;;5.30;;
74612;SDS011;63119;51.788;8.824;2022-11-15T06:33:03;10.47;;;5.07;;
74612;SDS011;63119;51.788;8.824;2022-11-15T06:35:29;9.38;;;5.07;;
74612;SDS011;63119;51.788;8.824;2022-11-15T06:37:56;10.00;;;4.88;;
74612;SDS011;63119;51.788;8.824;2022-11-15T06:40:26;10.30;;;5.13;;
74612;SDS011;63119;51.788;8.824;2022-11-15T06:42:56;8.87;;;5.17;;
74612;SDS011;63119;51.788;8.824;2022-11-15T06:45:22;9.73;;;5.25;;
74612;SDS011;63119;51.788;8.824;2022-11-15T06:47:48;9.80;;;4.87;;
74612;SDS011;63119;51.788;8.824;2022-11-15T06:50:13;9.83;;;5.23;;
74612;SDS011;63119;51.788;8.824;2022-11-15T06:52:39;9.68;;;5.18;;
74612;SDS011;63119;51.788;8.824;2022-11-15T06:55:04;11.33;;;5.87;;
74612;SDS011;63119;51.788;8.824;2022-11-15T06:57:30;11.23;;;4.82;;
74612;SDS011;63119;51.788;8.824;2022-11-15T06:59:55;9.37;;;5.00;;
74612;SDS011;63119;51.788;8.824;2022-11-15T07:02:20;9.73;;;5.20;;
74612;SDS011;63119;51.788;8.824;2022-11-15T07:04:45;9.00;;;4.70;;
74612;SDS011;63119;51.788;8.824;2022-11-15T07:07:11;10.37;;;4.77;;
74612;SDS011;63119;51.788;8.824;2022-11-15T07:09:36;6.53;;;4.07;;
74612;SDS011;63119;51.788;8.824;2022-11-15T07:12:01;9.10;;;4.87;;
74612;SDS011;63119;51.788;8.824;2022-11-15T07:14:27;11.85;;;5.22;;
74612;SDS011;63119;51.788;8.824;2022-11-15T07:16:52;7.10;;;4.73;;
74612;SDS011;63119;51.788;8.824;2022-11-15T07:19:17;9.67;;;4.67;;
74612;SDS011;63119;51.788;8.824;2022-11-15T07:21:42;5.27;;;3.67;;
74612;SDS011;63119;51.788;8.824;2022-11-15T07:24:08;7.77;;;4.77;;
74612;SDS011;63119;51.788;8.824;2022-11-15T07:26:33;7.07;;;4.20;;
74612;SDS011;63119;51.788;8.824;2022-11-15T07:28:58;7.43;;;4.20;;
74612;SDS011;63119;51.788;8.824;2022-11-15T07:31:24;6.80;;;4.03;;
74612;SDS011;63119;51.788;8.824;2022-11-15T07:33:50;6.68;;;3.90;;
74612;SDS011;63119;51.788;8.824;2022-11-15T07:36:15;4.77;;;3.10;;
74612;SDS011;63119;51.788;8.824;2022-11-15T07:38:40;4.90;;;3.60;;
74612;SDS011;63119;51.788;8.824;2022-11-15T07:41:06;7.00;;;4.23;;
74612;SDS011;63119;51.788;8.824;2022-11-15T07:43:31;6.47;;;3.60;;
74612;SDS011;63119;51.788;8.824;2022-11-15T07:46:04;6.45;;;3.20;;
74612;SDS011;63119;51.788;8.824;2022-11-15T07:48:30;5.38;;;3.72;;
74612;SDS011;63119;51.788;8.824;2022-11-15T07:50:56;4.00;;;3.05;;
74612;SDS011;63119;51.788;8.824;2022-11-15T07:53:21;4.90;;;2.97;;
74612;SDS011;63119;51.788;8.824;2022-11-15T07:55:46;5.13;;;3.03;;
74612;SDS011;63119;51.788;8.824;2022-11-15T07:58:12;4.67;;;2.77;;
74612;SDS011;63119;51.788;8.824;2022-11-15T08:00:37;7.00;;;3.28;;
74612;SDS011;63119;51.788;8.824;2022-11-15T08:03:10;4.50;;;2.65;;
74612;SDS011;63119;51.788;8.824;2022-11-15T08:05:37;4.88;;;2.97;;
74612;SDS011;63119;51.788;8.824;2022-11-15T08:08:04;5.28;;;2.90;;
74612;SDS011;63119;51.788;8.824;2022-11-15T08:10:30;5.38;;;3.08;;
74612;SDS011;63119;51.788;8.824;2022-11-15T08:12:59;5.07;;;2.92;;
74612;SDS011;63119;51.788;8.824;2022-11-15T08:15:24;4.38;;;2.92;;
74612;SDS011;63119;51.788;8.824;2022-11-15T08:17:54;5.97;;;3.22;;
74612;SDS011;63119;51.788;8.824;2022-11-15T08:20:23;5.68;;;2.90;;
74612;SDS011;63119;51.788;8.824;2022-11-15T08:22:49;5.93;;;3.05;;
74612;SDS011;63119;51.788;8.824;2022-11-15T08:25:15;7.03;;;2.85;;
74612;SDS011;63119;51.788;8.824;2022-11-15T08:27:41;5.85;;;3.05;;
74612;SDS011;63119;51.788;8.824;2022-11-15T08:30:06;4.77;;;3.03;;
74612;SDS011;63119;51.788;8.824;2022-11-15T08:32:32;5.10;;;3.15;;
74612;SDS011;63119;51.788;8.824;2022-11-15T08:34:57;7.90;;;2.88;;
74612;SDS011;63119;51.788;8.824;2022-11-15T08:37:22;5.50;;;3.30;;
74612;SDS011;63119;51.788;8.824;2022-11-15T08:39:48;5.00;;;2.97;;
74612;SDS011;63119;51.788;8.824;2022-11-15T08:42:13;5.40;;;2.97;;
74612;SDS011;63119;51.788;8.824;2022-11-15T08:44:39;4.60;;;3.10;;
74612;SDS011;63119;51.788;8.824;2022-11-15T08:47:05;4.53;;;3.17;;
74612;SDS011;63119;51.788;8.824;2022-11-15T08:49:30;4.33;;;3.20;;
74612;SDS011;63119;51.788;8.824;2022-11-15T08:51:55;4.83;;;3.00;;
74612;SDS011;63119;51.788;8.824;2022-11-15T08:54:21;5.78;;;2.97;;
74612;SDS011;63119;51.788;8.824;2022-11-15T08:56:46;5.83;;;2.77;;
74612;SDS011;63119;51.788;8.824;2022-11-15T08:59:11;4.97;;;3.30;;
74612;SDS011;63119;51.788;8.824;2022-11-15T09:01:36;6.70;;;3.00;;
74612;SDS011;63119;51.788;8.824;2022-11-15T09:04:02;5.80;;;3.20;;
74612;SDS011;63119;51.788;8.824;2022-11-15T09:06:28;4.97;;;2.90;;
74612;SDS011;63119;51.788;8.824;2022-11-15T09:08:54;6.03;;;3.00;;
74612;SDS011;63119;51.788;8.824;2022-11-15T09:11:19;4.77;;;2.93;;
74612;SDS011;63119;51.788;8.824;2022-11-15T09:13:46;7.05;;;3.28;;
74612;SDS011;63119;51.788;8.824;2022-11-15T09:16:11;5.82;;;2.70;;
74612;SDS011;63119;51.788;8.824;2022-11-15T09:18:37;5.53;;;3.35;;
74612;SDS011;63119;51.788;8.824;2022-11-15T09:21:02;4.50;;;3.03;;
74612;SDS011;63119;51.788;8.824;2022-11-15T09:23:28;6.55;;;3.38;;
74612;SDS011;63119;51.788;8.824;2022-11-15T09:25:57;5.97;;;2.80;;
74612;SDS011;63119;51.788;8.824;2022-11-15T09:28:24;4.05;;;2.67;;
74612;SDS011;63119;51.788;8.824;2022-11-15T09:30:49;6.13;;;2.90;;
74612;SDS011;63119;51.788;8.824;2022-11-15T09:33:14;4.07;;;2.53;;
74612;SDS011;63119;51.788;8.824;2022-11-15T09:35:40;5.43;;;2.70;;
74612;SDS011;63119;51.788;8.824;2022-11-15T09:38:06;4.63;;;2.72;;
74612;SDS011;63119;51.788;8.824;2022-11-15T09:40:31;4.97;;;2.40;;
74612;SDS011;63119;51.788;8.824;2022-11-15T09:45:55;4.60;;;2.22;;
74612;SDS011;63119;51.788;8.824;2022-11-15T09:48:37;3.80;;;2.13;;
74612;SDS011;63119;51.788;8.824;2022-11-15T09:54:10;4.53;;;2.30;;
74612;SDS011;63119;51.788;8.824;2022-11-15T09:56:42;3.17;;;2.20;;
74612;SDS011;63119;51.788;8.824;2022-11-15T09:59:13;4.88;;;2.20;;
74612;SDS011;63119;51.788;8.824;2022-11-15T10:02:04;6.40;;;2.33;;
74612;SDS011;63119;51.788;8.824;2022-11-15T10:04:35;4.78;;;2.55;;
74612;SDS011;63119;51.788;8.824;2022-11-15T10:07:06;4.40;;;2.45;;
74612;SDS011;63119;51.788;8.824;2022-11-15T10:12:21;4.75;;;2.50;;
74612;SDS011;63119;51.788;8.824;2022-11-15T10:14:47;2.67;;;1.70;;
74612;SDS011;63119;51.788;8.824;2022-11-15T10:17:21;3.75;;;1.83;;
74612;SDS011;63119;51.788;8.824;2022-11-15T10:25:40;3.20;;;2.00;;
74612;SDS011;63119;51.788;8.824;2022-11-15T10:28:16;4.65;;;1.85;;
74612;SDS011;63119;51.788;8.824;2022-11-15T10:30:48;6.80;;;1.90;;
74612;SDS011;63119;51.788;8.824;2022-11-15T10:41:37;2.45;;;1.17;;
74612;SDS011;63119;51.788;8.824;2022-11-15T10:46:44;2.35;;;1.27;;
74612;SDS011;63119;51.788;8.824;2022-11-15T10:49:16;3.08;;;1.17;;
74612;SDS011;63119;51.788;8.824;2022-11-15T10:51:50;2.28;;;1.27;;
74612;SDS011;63119;51.788;8.824;2022-11-15T10:57:18;1.85;;;1.20;;
74612;SDS011;63119;51.788;8.824;2022-11-15T10:59:47;2.33;;;1.23;;
74612;SDS011;63119;51.788;8.824;2022-11-15T11:02:30;2.25;;;1.30;;
74612;SDS011;63119;51.788;8.824;2022-11-15T11:05:05;3.15;;;1.48;;
74612;SDS011;63119;51.788;8.824;2022-11-15T11:07:55;2.47;;;1.40;;
74612;SDS011;63119;51.788;8.824;2022-11-15T11:10:23;3.97;;;1.52;;
74612;SDS011;63119;51.788;8.824;2022-11-15T11:12:48;2.50;;;1.40;;
74612;SDS011;63119;51.788;8.824;2022-11-15T11:15:14;4.60;;;1.60;;
74612;SDS011;63119;51.788;8.824;2022-11-15T11:17:57;3.65;;;1.55;;
74612;SDS011;63119;51.788;8.824;2022-11-15T11:23:06;4.63;;;1.73;;
74612;SDS011;63119;51.788;8.824;2022-11-15T11:37:12;2.40;;;1.45;;
74612;SDS011;63119;51.788;8.824;2022-11-15T11:40:00;3.25;;;1.60;;
74612;SDS011;63119;51.788;8.824;2022-11-15T11:45:05;4.33;;;1.77;;
74612;SDS011;63119;51.788;8.824;2022-11-15T11:50:39;4.60;;;1.65;;
74612;SDS011;63119;51.788;8.824;2022-11-15T11:56:05;3.42;;;1.90;;
74612;SDS011;63119;51.788;8.824;2022-11-15T11:58:42;4.07;;;1.52;;
74612;SDS011;63119;51.788;8.824;2022-11-15T12:01:13;2.40;;;1.55;;
74612;SDS011;63119;51.788;8.824;2022-11-15T12:03:44;2.83;;;1.95;;
74612;SDS011;63119;51.788;8.824;2022-11-15T12:08:50;3.55;;;1.88;;
74612;SDS011;63119;51.788;8.824;2022-11-15T12:16:26;4.10;;;2.05;;
74612;SDS011;63119;51.788;8.824;2022-11-15T12:18:54;3.30;;;1.98;;
74612;SDS011;63119;51.788;8.824;2022-11-15T12:21:31;4.35;;;1.83;;
74612;SDS011;63119;51.788;8.824;2022-11-15T12:24:27;4.53;;;1.70;;
74612;SDS011;63119;51.788;8.824;2022-11-15T12:26:57;3.50;;;2.28;;
74612;SDS011;63119;51.788;8.824;2022-11-15T12:29:31;3.90;;;1.52;;
74612;SDS011;63119;51.788;8.824;2022-11-15T12:32:29;3.58;;;1.90;;
74612;SDS011;63119;51.788;8.824;2022-11-15T12:35:00;5.65;;;1.90;;
74612;SDS011;63119;51.788;8.824;2022-11-15T12:45:33;3.40;;;2.00;;
74612;SDS011;63119;51.788;8.824;2022-11-15T12:50:53;3.33;;;2.03;;
74612;SDS011;63119;51.788;8.824;2022-11-15T12:53:28;3.58;;;1.90;;
74612;SDS011;63119;51.788;8.824;2022-11-15T12:58:43;3.72;;;2.17;;
74612;SDS011;63119;51.788;8.824;2022-11-15T13:01:52;3.38;;;2.08;;
74612;SDS011;63119;51.788;8.824;2022-11-15T13:12:00;3.42;;;1.70;;
74612;SDS011;63119;51.788;8.824;2022-11-15T13:14:37;4.88;;;2.00;;
74612;SDS011;63119;51.788;8.824;2022-11-15T13:19:43;4.10;;;1.83;;
74612;SDS011;63119;51.788;8.824;2022-11-15T13:22:11;2.88;;;1.70;;
74612;SDS011;63119;51.788;8.824;2022-11-15T13:24:56;3.38;;;1.80;;
74612;SDS011;63119;51.788;8.824;2022-11-15T13:27:22;2.65;;;1.80;;
74612;SDS011;63119;51.788;8.824;2022-11-15T13:29:47;4.63;;;1.80;;
74612;SDS011;63119;51.788;8.824;2022-11-15T13:32:13;2.42;;;1.63;;
74612;SDS011;63119;51.788;8.824;2022-11-15T13:34:47;2.42;;;1.45;;
74612;SDS011;63119;51.788;8.824;2022-11-15T13:39:47;4.57;;;2.00;;
74612;SDS011;63119;51.788;8.824;2022-11-15T13:42:17;3.75;;;1.85;;
74612;SDS011;63119;51.788;8.824;2022-11-15T13:44:54;3.55;;;1.73;;
74612;SDS011;63119;51.788;8.824;2022-11-15T13:47:21;3.33;;;1.60;;
74612;SDS011;63119;51.788;8.824;2022-11-15T13:49:51;4.15;;;1.83;;
74612;SDS011;63119;51.788;8.824;2022-11-15T13:52:17;4.17;;;1.70;;
74612;SDS011;63119;51.788;8.824;2022-11-15T13:54:43;5.30;;;1.90;;
74612;SDS011;63119;51.788;8.824;2022-11-15T13:57:11;3.08;;;1.45;;
74612;SDS011;63119;51.788;8.824;2022-11-15T14:05:35;5.03;;;1.60;;
74612;SDS011;63119;51.788;8.824;2022-11-15T14:07:53;2.38;;;1.40;;
74612;SDS011;63119;51.788;8.824;2022-11-15T14:10:29;2.65;;;1.50;;
74612;SDS011;63119;51.788;8.824;2022-11-15T14:12:56;3.72;;;1.70;;
74612;SDS011;63119;51.788;8.824;2022-11-15T14:15:32;4.18;;;1.52;;
74612;SDS011;63119;51.788;8.824;2022-11-15T14:17:59;2.50;;;1.50;;
74612;SDS011;63119;51.788;8.824;2022-11-15T14:22:53;3.92;;;1.40;;
74612;SDS011;63119;51.788;8.824;2022-11-15T14:25:30;2.72;;;1.40;;
74612;SDS011;63119;51.788;8.824;2022-11-15T14:28:15;4.57;;;1.50;;
74612;SDS011;63119;51.788;8.824;2022-11-15T14:30:46;2.35;;;1.23;;
74612;SDS011;63119;51.788;8.824;2022-11-15T14:33:19;2.97;;;1.30;;
74612;SDS011;63119;51.788;8.824;2022-11-15T14:35:47;2.63;;;0.93;;
74612;SDS011;63119;51.788;8.824;2022-11-15T14:38:13;2.45;;;1.27;;
74612;SDS011;63119;51.788;8.824;2022-11-15T14:40:39;3.40;;;1.30;;
74612;SDS011;63119;51.788;8.824;2022-11-15T14:43:04;5.57;;;1.20;;
74612;SDS011;63119;51.788;8.824;2022-11-15T14:45:33;2.00;;;1.10;;
74612;SDS011;63119;51.788;8.824;2022-11-15T14:47:58;2.90;;;1.25;;
74612;SDS011;63119;51.788;8.824;2022-11-15T14:50:23;2.83;;;1.17;;
74612;SDS011;63119;51.788;8.824;2022-11-15T14:52:49;2.57;;;1.30;;
74612;SDS011;63119;51.788;8.824;2022-11-15T14:55:16;3.80;;;1.50;;
74612;SDS011;63119;51.788;8.824;2022-11-15T14:57:42;3.22;;;1.23;;
74612;SDS011;63119;51.788;8.824;2022-11-15T15:00:08;2.60;;;1.10;;
74612;SDS011;63119;51.788;8.824;2022-11-15T15:02:34;2.92;;;1.33;;
74612;SDS011;63119;51.788;8.824;2022-11-15T15:05:00;2.00;;;1.20;;
74612;SDS011;63119;51.788;8.824;2022-11-15T15:07:28;2.58;;;1.20;;
74612;SDS011;63119;51.788;8.824;2022-11-15T15:09:53;4.07;;;1.40;;
74612;SDS011;63119;51.788;8.824;2022-11-15T15:12:20;2.90;;;1.40;;
74612;SDS011;63119;51.788;8.824;2022-11-15T15:14:46;2.35;;;1.48;;
74612;SDS011;63119;51.788;8.824;2022-11-15T15:17:13;2.72;;;1.25;;
74612;SDS011;63119;51.788;8.824;2022-11-15T15:19:38;2.58;;;1.23;;
74612;SDS011;63119;51.788;8.824;2022-11-15T15:22:04;3.05;;;1.35;;
74612;SDS011;63119;51.788;8.824;2022-11-15T15:24:29;2.05;;;1.30;;
74612;SDS011;63119;51.788;8.824;2022-11-15T15:26:55;2.53;;;1.13;;
74612;SDS011;63119;51.788;8.824;2022-11-15T15:29:20;3.23;;;1.27;;
74612;SDS011;63119;51.788;8.824;2022-11-15T15:31:45;2.13;;;1.20;;
74612;SDS011;63119;51.788;8.824;2022-11-15T15:34:11;1.80;;;1.10;;
74612;SDS011;63119;51.788;8.824;2022-11-15T15:36:36;3.33;;;1.50;;
74612;SDS011;63119;51.788;8.824;2022-11-15T15:39:01;3.47;;;1.07;;
74612;SDS011;63119;51.788;8.824;2022-11-15T15:41:27;3.97;;;1.55;;
74612;SDS011;63119;51.788;8.824;2022-11-15T15:43:52;4.50;;;1.40;;
74612;SDS011;63119;51.788;8.824;2022-11-15T15:46:18;3.88;;;1.25;;
74612;SDS011;63119;51.788;8.824;2022-11-15T15:48:45;1.90;;;1.20;;
74612;SDS011;63119;51.788;8.824;2022-11-15T15:51:10;5.07;;;1.70;;
74612;SDS011;63119;51.788;8.824;2022-11-15T15:53:36;2.75;;;1.35;;
74612;SDS011;63119;51.788;8.824;2022-11-15T15:56:02;4.95;;;1.33;;
74612;SDS011;63119;51.788;8.824;2022-11-15T15:58:28;2.25;;;1.00;;
74612;SDS011;63119;51.788;8.824;2022-11-15T16:00:53;3.03;;;1.30;;
74612;SDS011;63119;51.788;8.824;2022-11-15T16:03:19;4.07;;;1.70;;
74612;SDS011;63119;51.788;8.824;2022-11-15T16:05:44;2.15;;;1.30;;
74612;SDS011;63119;51.788;8.824;2022-11-15T16:08:16;3.40;;;1.80;;
74612;SDS011;63119;51.788;8.824;2022-11-15T16:10:43;3.58;;;1.55;;
74612;SDS011;63119;51.788;8.824;2022-11-15T16:13:08;3.80;;;1.70;;
74612;SDS011;63119;51.788;8.824;2022-11-15T16:15:34;4.47;;;1.93;;
74612;SDS011;63119;51.788;8.824;2022-11-15T16:18:00;3.72;;;1.60;;
74612;SDS011;63119;51.788;8.824;2022-11-15T16:20:30;4.60;;;1.50;;
74612;SDS011;63119;51.788;8.824;2022-11-15T16:22:59;3.08;;;1.50;;
74612;SDS011;63119;51.788;8.824;2022-11-15T16:25:25;2.80;;;1.42;;
74612;SDS011;63119;51.788;8.824;2022-11-15T16:27:50;2.25;;;1.35;;
74612;SDS011;63119;51.788;8.824;2022-11-15T16:30:16;4.50;;;1.40;;
74612;SDS011;63119;51.788;8.824;2022-11-15T16:32:43;4.03;;;1.92;;
74612;SDS011;63119;51.788;8.824;2022-11-15T16:35:12;3.20;;;1.70;;
74612;SDS011;63119;51.788;8.824;2022-11-15T16:37:39;3.42;;;1.48;;
74612;SDS011;63119;51.788;8.824;2022-11-15T16:40:27;6.35;;;1.67;;
74612;SDS011;63119;51.788;8.824;2022-11-15T16:42:55;2.05;;;1.30;;
74612;SDS011;63119;51.788;8.824;2022-11-15T16:45:22;3.65;;;1.63;;
74612;SDS011;63119;51.788;8.824;2022-11-15T16:47:48;3.28;;;1.48;;
74612;SDS011;63119;51.788;8.824;2022-11-15T16:50:21;3.60;;;1.67;;
74612;SDS011;63119;51.788;8.824;2022-11-15T16:52:54;2.20;;;1.40;;